createdAt,value
2023-04-13T00:02:11.693Z,99060.16
2023-04-13T00:04:39.101Z,99070.84
2023-04-13T00:07:06.058Z,99076.09
2023-04-13T00:09:33.581Z,99077.91
2023-04-13T00:12:00.850Z,99081.16
2023-04-13T00:14:27.830Z,99076.72
2023-04-13T00:16:54.953Z,99089.28
2023-04-13T00:19:21.947Z,99089.31
2023-04-13T00:21:48.974Z,99089.94
2023-04-13T00:24:16.430Z,99092.38
2023-04-13T00:26:43.342Z,99095.81
2023-04-13T00:29:10.519Z,99106.53
2023-04-13T00:31:38.352Z,99108.34
2023-04-13T00:34:05.331Z,99118.59
2023-04-13T00:36:32.300Z,99118.59
2023-04-13T00:38:59.600Z,99125.31
2023-04-13T00:41:27.297Z,99135.44
2023-04-13T00:43:54.292Z,99130.97
2023-04-13T00:46:21.671Z,99124.50
2023-04-13T00:48:49.113Z,99126.09
2023-04-13T00:51:16.553Z,99130.00
2023-04-13T00:53:43.776Z,99125.34
2023-04-13T00:56:11.286Z,99135.44
2023-04-13T00:58:38.483Z,99140.03
2023-04-13T01:01:05.658Z,99137.41
2023-04-13T01:03:32.706Z,99141.84
2023-04-13T01:06:00.015Z,99141.06
2023-04-13T01:08:32.360Z,99143.06
2023-04-13T01:10:59.593Z,99146.34
2023-04-13T01:13:30.592Z,99153.59
2023-04-13T01:16:02.660Z,99145.47
2023-04-13T01:18:30.962Z,99150.28
2023-04-13T01:20:58.504Z,99156.16
2023-04-13T01:23:31.610Z,99156.16
2023-04-13T01:26:00.535Z,99156.34
2023-04-13T01:28:28.376Z,99158.34
2023-04-13T01:30:55.853Z,99167.22
2023-04-13T01:33:23.297Z,99165.22
2023-04-13T01:35:51.576Z,99171.91
2023-04-13T01:38:24.968Z,99178.78
2023-04-13T01:40:52.203Z,99178.41
2023-04-13T01:43:19.883Z,99187.50
2023-04-13T01:45:50.292Z,99191.19
2023-04-13T01:48:18.757Z,99190.38
2023-04-13T01:50:48.939Z,99180.84
2023-04-13T01:53:17.728Z,99183.06
2023-04-13T01:55:45.263Z,99190.50
2023-04-13T01:58:13.864Z,99201.38
2023-04-13T02:00:41.576Z,99216.97
2023-04-13T02:03:10.084Z,99214.69
2023-04-13T02:05:37.290Z,99211.88
2023-04-13T02:08:05.625Z,99209.09
2023-04-13T02:10:34.075Z,99222.78
2023-04-13T02:13:05.380Z,99225.19
2023-04-13T02:15:36.026Z,99218.69
2023-04-13T02:18:03.892Z,99226.22
2023-04-13T02:20:33.904Z,99229.84
2023-04-13T02:23:01.904Z,99232.66
2023-04-13T02:25:28.841Z,99241.53
2023-04-13T02:27:55.960Z,99238.28
2023-04-13T02:30:22.878Z,99244.53
2023-04-13T02:32:50.313Z,99248.34
2023-04-13T02:35:17.709Z,99249.38
2023-04-13T02:37:46.564Z,99263.31
2023-04-13T02:40:13.730Z,99253.59
2023-04-13T02:42:40.668Z,99261.03
2023-04-13T02:45:08.496Z,99260.22
2023-04-13T02:47:35.603Z,99263.31
2023-04-13T02:50:02.586Z,99266.72
2023-04-13T02:52:29.698Z,99269.75
2023-04-13T02:54:57.312Z,99279.59
2023-04-13T02:57:25.600Z,99276.19
2023-04-13T02:59:52.593Z,99282.22
2023-04-13T03:02:19.761Z,99279.81
2023-04-13T03:04:47.835Z,99286.06
2023-04-13T03:07:14.905Z,99294.94
2023-04-13T03:09:42.078Z,99292.13
2023-04-13T03:12:09.665Z,99304.81
2023-04-13T03:14:37.276Z,99306.16
2023-04-13T03:17:04.975Z,99313.88
2023-04-13T03:19:32.345Z,99314.25
2023-04-13T03:21:59.434Z,99308.19
2023-04-13T03:24:27.909Z,99317.50
2023-04-13T03:26:57.369Z,99323.13
2023-04-13T03:29:24.841Z,99326.75
2023-04-13T03:31:52.406Z,99322.13
2023-04-13T03:34:21.635Z,99327.56
2023-04-13T03:36:48.980Z,99336.44
2023-04-13T03:39:15.922Z,99333.19
2023-04-13T03:41:42.849Z,99343.41
2023-04-13T03:44:10.400Z,99341.97
2023-04-13T03:46:38.044Z,99349.03
2023-04-13T03:49:07.191Z,99360.50
2023-04-13T03:51:34.375Z,99361.53
2023-04-13T03:54:01.654Z,99365.16
2023-04-13T03:56:28.833Z,99361.88
2023-04-13T03:58:56.091Z,99372.22
2023-04-13T04:01:24.504Z,99378.44
2023-04-13T04:03:52.274Z,99378.63
2023-04-13T04:06:19.279Z,99379.81
2023-04-13T04:08:49.979Z,99384.41
2023-04-13T04:11:17.308Z,99387.69
2023-04-13T04:13:44.292Z,99398.19
2023-04-13T04:16:12.105Z,99391.31
2023-04-13T04:18:39.189Z,99391.69
2023-04-13T04:21:07.372Z,99403.34
2023-04-13T04:23:38.183Z,99397.28
2023-04-13T04:26:05.402Z,99401.69
2023-04-13T04:28:38.788Z,99416.63
2023-04-13T04:31:07.536Z,99414.22
2023-04-13T04:33:34.571Z,99423.88
2023-04-13T04:36:02.148Z,99413.72
2023-04-13T04:38:30.804Z,99420.00
2023-04-13T04:40:58.093Z,99424.22
2023-04-13T04:43:27.585Z,99432.09
2023-04-13T04:45:58.441Z,99437.56
2023-04-13T04:48:27.430Z,99428.41
2023-04-13T04:50:56.386Z,99433.47
2023-04-13T04:53:23.434Z,99437.88
2023-04-13T04:55:50.754Z,99433.00
2023-04-13T04:58:19.114Z,99444.50
2023-04-13T05:00:47.240Z,99450.72
2023-04-13T05:03:14.259Z,99456.81
2023-04-13T05:05:41.681Z,99473.19
2023-04-13T05:08:09.113Z,99465.94
2023-04-13T05:10:36.245Z,99465.16
2023-04-13T05:13:03.428Z,99462.88
2023-04-13T05:15:30.431Z,99476.81
2023-04-13T05:17:57.799Z,99475.53
2023-04-13T05:20:24.758Z,99470.44
2023-04-13T05:22:51.813Z,99478.31
2023-04-13T05:25:18.820Z,99490.00
2023-04-13T05:27:45.975Z,99487.56
2023-04-13T05:30:14.066Z,99489.63
2023-04-13T05:32:41.049Z,99486.19
2023-04-13T05:35:08.376Z,99485.38
2023-04-13T05:37:35.530Z,99480.78
2023-04-13T05:40:08.871Z,99492.09
2023-04-13T05:42:36.459Z,99493.91
2023-04-13T05:45:04.343Z,99501.78
2023-04-13T05:47:31.363Z,99504.41
2023-04-13T05:50:00.655Z,99514.91
2023-04-13T05:52:27.589Z,99507.84
2023-04-13T05:54:55.109Z,99514.91
2023-04-13T05:57:22.300Z,99518.78
2023-04-13T05:59:51.222Z,99521.25
2023-04-13T06:02:18.257Z,99526.94
2023-04-13T06:04:46.082Z,99535.00
2023-04-13T06:07:16.865Z,99533.03
2023-04-13T06:09:43.827Z,99525.97
2023-04-13T06:12:10.757Z,99536.28
2023-04-13T06:14:37.943Z,99549.06
2023-04-13T06:17:05.077Z,99543.09
2023-04-13T06:19:32.207Z,99548.44
2023-04-13T06:21:59.935Z,99561.69
2023-04-13T06:24:27.841Z,99558.88
2023-04-13T06:26:54.860Z,99558.88
2023-04-13T06:29:21.998Z,99556.09
2023-04-13T06:31:48.936Z,99561.44
2023-04-13T06:34:16.557Z,99572.41
2023-04-13T06:36:43.571Z,99576.66
2023-04-13T06:39:10.843Z,99575.31
2023-04-13T06:41:38.355Z,99580.03
2023-04-13T06:44:05.458Z,99572.78
2023-04-13T06:46:32.436Z,99580.09
2023-04-13T06:48:59.560Z,99584.16
2023-04-13T06:51:27.530Z,99588.97
2023-04-13T06:53:55.076Z,99599.69
2023-04-13T06:56:22.149Z,99608.31
2023-04-13T06:58:49.357Z,99614.44
2023-04-13T07:01:16.797Z,99604.66
2023-04-13T07:03:45.061Z,99619.25
2023-04-13T07:06:12.268Z,99619.50
2023-04-13T07:08:39.259Z,99620.94
2023-04-13T07:11:06.476Z,99621.75
2023-04-13T07:13:33.564Z,99623.03
2023-04-13T07:16:00.601Z,99635.06
2023-04-13T07:18:28.118Z,99645.03
2023-04-13T07:20:55.355Z,99639.72
2023-04-13T07:23:22.263Z,99647.59
2023-04-13T07:25:49.289Z,99638.28
2023-04-13T07:28:16.926Z,99653.34
2023-04-13T07:30:44.500Z,99658.56
2023-04-13T07:33:11.580Z,99661.66
2023-04-13T07:35:38.881Z,99661.81
2023-04-13T07:38:06.640Z,99667.63
2023-04-13T07:40:33.972Z,99668.25
2023-04-13T07:43:01.044Z,99669.19
2023-04-13T07:45:34.465Z,99668.28
2023-04-13T07:48:01.638Z,99667.91
2023-04-13T07:50:29.025Z,99672.28
2023-04-13T07:52:56.039Z,99671.81
2023-04-13T07:55:23.161Z,99681.69
2023-04-13T07:57:51.996Z,99696.53
2023-04-13T08:00:20.897Z,99695.50
2023-04-13T08:02:52.129Z,99689.72
2023-04-13T08:05:19.558Z,99690.81
2023-04-13T08:07:51.354Z,99696.00
2023-04-13T08:10:18.477Z,99703.75
2023-04-13T08:12:45.542Z,99693.38
2023-04-13T08:15:13.073Z,99700.25
2023-04-13T08:17:40.262Z,99694.38
2023-04-13T08:20:08.687Z,99698.94
2023-04-13T08:22:37.119Z,99690.78
2023-04-13T08:25:05.946Z,99700.84
2023-04-13T08:27:33.175Z,99708.38
2023-04-13T08:30:02.684Z,99703.00
2023-04-13T08:32:29.997Z,99706.44
2023-04-13T08:34:57.236Z,99705.44
2023-04-13T08:37:25.091Z,99708.06
2023-04-13T08:39:56.795Z,99713.53
2023-04-13T08:42:25.231Z,99717.78
2023-04-13T08:44:58.206Z,99719.59
2023-04-13T08:47:26.835Z,99724.44
2023-04-13T08:49:56.698Z,99711.25
2023-04-13T08:52:24.515Z,99724.22
2023-04-13T08:54:52.003Z,99717.09
2023-04-13T08:57:20.461Z,99719.31
2023-04-13T08:59:48.654Z,99726.63
2023-04-13T09:02:16.273Z,99727.41
2023-04-13T09:04:45.435Z,99731.63
2023-04-13T09:07:13.545Z,99724.53
2023-04-13T09:09:43.517Z,99722.31
2023-04-13T09:12:10.533Z,99726.81
2023-04-13T09:14:38.948Z,99735.78
2023-04-13T09:17:07.421Z,99737.22
2023-04-13T09:19:38.215Z,99743.34
2023-04-13T09:22:16.578Z,99748.44
2023-04-13T09:24:43.772Z,99749.50
2023-04-13T09:27:21.510Z,99758.06
2023-04-13T09:29:49.138Z,99751.38
2023-04-13T09:32:20.445Z,99767.84
2023-04-13T09:34:58.062Z,99753.41
2023-04-13T09:37:25.272Z,99756.88
2023-04-13T09:39:53.016Z,99759.50
2023-04-13T09:42:21.218Z,99758.50
2023-04-13T09:44:57.629Z,99750.78
2023-04-13T09:47:25.458Z,99757.88
2023-04-13T09:49:52.923Z,99762.97
2023-04-13T09:52:20.923Z,99756.28
2023-04-13T09:54:51.912Z,99756.09
2023-04-13T09:57:28.863Z,99770.94
2023-04-13T09:59:57.171Z,99763.22
2023-04-13T10:02:24.444Z,99777.69
2023-04-13T10:04:52.166Z,99775.22
2023-04-13T10:07:19.899Z,99773.00
2023-04-13T10:09:47.065Z,99772.19
2023-04-13T10:12:17.181Z,99778.31
2023-04-13T10:14:46.399Z,99781.53
2023-04-13T10:17:23.644Z,99791.28
2023-04-13T10:19:52.074Z,99781.91
2023-04-13T10:22:21.148Z,99786.59
2023-04-13T10:24:48.240Z,99789.84
2023-04-13T10:27:17.351Z,99788.47
2023-04-13T10:29:44.750Z,99791.50
2023-04-13T10:32:21.313Z,99789.47
2023-04-13T10:34:48.381Z,99808.22
2023-04-13T10:37:19.847Z,99810.06
2023-04-13T10:39:47.386Z,99795.84
2023-04-13T10:42:16.553Z,99800.31
2023-04-13T10:44:45.786Z,99790.53
2023-04-13T10:47:13.871Z,99799.88
2023-04-13T10:49:42.271Z,99807.41
2023-04-13T10:52:11.665Z,99805.81
2023-04-13T10:54:39.640Z,99809.88
2023-04-13T10:57:09.697Z,99810.53
2023-04-13T10:59:53.078Z,99803.16
2023-04-13T11:02:25.129Z,99814.53
2023-04-13T11:04:53.128Z,99808.22
2023-04-13T11:07:23.934Z,99807.38
2023-04-13T11:09:51.973Z,99807.00
2023-04-13T11:12:19.694Z,99811.06
2023-04-13T11:14:47.259Z,99801.31
2023-04-13T11:17:15.457Z,99803.78
2023-04-13T11:19:52.831Z,99813.75
2023-04-13T11:22:23.019Z,99803.75
2023-04-13T11:24:51.384Z,99803.97
2023-04-13T11:27:19.217Z,99805.81
2023-04-13T11:29:46.441Z,99809.66
2023-04-13T11:32:19.221Z,99815.00
2023-04-13T11:34:47.806Z,99797.28
2023-04-13T11:37:14.935Z,99797.88
2023-04-13T11:39:44.278Z,99808.28
2023-04-13T11:42:12.388Z,99807.88
2023-04-13T11:44:40.264Z,99810.09
2023-04-13T11:47:09.232Z,99806.03
2023-04-13T11:49:36.572Z,99811.75
2023-04-13T11:52:03.798Z,99813.38
2023-04-13T11:54:31.147Z,99811.75
2023-04-13T11:56:58.368Z,99798.47
2023-04-13T11:59:25.851Z,99795.03
2023-04-13T12:02:01.584Z,99808.88
2023-04-13T12:04:37.461Z,99810.72
2023-04-13T12:07:09.768Z,99811.13
2023-04-13T12:15:15.320Z,99819.28
2023-04-13T12:20:26.276Z,99817.25
2023-04-13T12:23:00.274Z,99819.69
2023-04-13T12:25:35.867Z,99823.34
2023-04-13T12:28:03.848Z,99810.72
2023-04-13T12:30:30.931Z,99825.38
2023-04-13T12:32:57.997Z,99817.03
2023-04-13T12:35:25.077Z,99811.94
2023-04-13T12:37:52.906Z,99812.97
2023-04-13T12:40:20.035Z,99811.94
2023-04-13T12:42:47.647Z,99808.88
2023-04-13T12:45:15.484Z,99815.41
2023-04-13T12:47:43.113Z,99823.75
2023-04-13T12:50:11.127Z,99829.66
2023-04-13T12:52:39.517Z,99835.75
2023-04-13T12:55:07.149Z,99822.94
2023-04-13T12:57:34.144Z,99826.59
2023-04-13T13:00:01.356Z,99832.91
2023-04-13T13:02:31.475Z,99837.00
2023-04-13T13:04:59.829Z,99826.81
2023-04-13T13:07:28.960Z,99841.91
2023-04-13T13:09:56.562Z,99834.34
2023-04-13T13:12:24.848Z,99829.88
2023-04-13T13:14:52.011Z,99839.44
2023-04-13T13:17:19.335Z,99832.31
2023-04-13T13:19:46.429Z,99823.53
2023-04-13T13:22:13.467Z,99827.00
2023-04-13T13:24:40.739Z,99816.41
2023-04-13T13:29:37.716Z,99815.75
2023-04-13T13:32:04.949Z,99812.91
2023-04-13T13:34:32.152Z,99812.88
2023-04-13T13:36:59.537Z,99815.31
2023-04-13T13:39:26.591Z,99818.16
2023-04-13T13:41:53.843Z,99813.47
2023-04-13T13:44:20.970Z,99805.06
2023-04-13T13:46:48.082Z,99814.25
2023-04-13T13:49:15.148Z,99802.38
2023-04-13T13:51:42.969Z,99797.50
2023-04-13T13:54:09.923Z,99815.44
2023-04-13T13:56:36.988Z,99807.44
2023-04-13T13:59:04.198Z,99808.25
2023-04-13T14:01:31.872Z,99818.25
2023-04-13T14:03:59.771Z,99811.88
2023-04-13T14:06:28.276Z,99807.56
2023-04-13T14:08:56.461Z,99811.38
2023-04-13T14:11:24.038Z,99816.25
2023-04-13T14:13:51.448Z,99817.69
2023-04-13T14:16:18.528Z,99818.31
2023-04-13T14:18:46.960Z,99816.47
2023-04-13T14:21:16.227Z,99818.53
2023-04-13T14:23:43.404Z,99822.00
2023-04-13T14:26:10.505Z,99829.94
2023-04-13T14:28:37.605Z,99820.53
2023-04-13T14:31:04.744Z,99821.16
2023-04-13T14:33:32.163Z,99827.88
2023-04-13T14:35:59.166Z,99835.66
2023-04-13T14:38:26.234Z,99837.75
2023-04-13T14:40:53.243Z,99838.22
2023-04-13T14:43:20.279Z,99848.47
2023-04-13T14:45:47.480Z,99859.91
2023-04-13T14:48:14.565Z,99869.91
2023-04-13T14:50:41.638Z,99875.25
2023-04-13T14:53:09.846Z,99866.91
2023-04-13T14:55:37.212Z,99873.66
2023-04-13T14:58:05.821Z,99873.25
2023-04-13T15:00:39.622Z,99876.28
2023-04-13T15:03:08.410Z,99872.22
2023-04-13T15:05:36.920Z,99874.50
2023-04-13T15:08:06.806Z,99878.34
2023-04-13T15:10:35.227Z,99884.66
2023-04-13T15:13:03.592Z,99892.00
2023-04-13T15:15:31.686Z,99897.09
2023-04-13T15:18:01.826Z,99903.63
2023-04-13T15:20:29.773Z,99904.63
2023-04-13T15:22:57.419Z,99907.47
2023-04-13T15:25:24.907Z,99907.28
2023-04-13T15:27:52.689Z,99905.25
2023-04-13T15:30:29.532Z,99900.75
2023-04-13T15:32:57.589Z,99893.19
2023-04-13T15:35:26.857Z,99893.00
2023-04-13T15:37:57.452Z,99888.69
2023-04-13T15:40:26.252Z,99893.59
2023-04-13T15:42:53.373Z,99894.66
2023-04-13T15:45:21.444Z,99888.97
2023-04-13T15:47:48.420Z,99882.00
2023-04-13T15:50:19.404Z,99889.56
2023-04-13T15:52:46.639Z,99887.53
2023-04-13T15:55:13.612Z,99885.69
2023-04-13T15:57:40.546Z,99884.25
2023-04-13T16:00:08.959Z,99898.13
2023-04-13T16:02:36.927Z,99901.19
2023-04-13T16:05:04.272Z,99888.75
2023-04-13T16:07:31.343Z,99899.13
2023-04-13T16:09:58.846Z,99893.41
2023-04-13T16:12:31.731Z,99899.50
2023-04-13T16:15:00.115Z,99902.09
2023-04-13T16:17:37.258Z,99890.06
2023-04-13T16:20:11.382Z,99897.97
2023-04-13T16:22:38.315Z,99882.47
2023-04-13T16:25:05.854Z,99881.88
2023-04-13T16:27:32.971Z,99884.56
2023-04-13T16:30:00.108Z,99884.78
2023-04-13T16:32:27.574Z,99887.19
2023-04-13T16:34:54.601Z,99893.13
2023-04-13T16:37:22.154Z,99889.66
2023-04-13T16:39:49.324Z,99897.63
2023-04-13T16:42:17.881Z,99893.13
2023-04-13T16:44:45.013Z,99891.50
2023-04-13T16:47:12.028Z,99907.38
2023-04-13T16:49:39.105Z,99902.69
2023-04-13T16:52:06.182Z,99915.13
2023-04-13T16:54:33.482Z,99912.25
2023-04-13T16:57:00.548Z,99922.84
2023-04-13T16:59:27.493Z,99934.03
2023-04-13T17:01:55.060Z,99924.47
2023-04-13T17:04:26.267Z,99938.50
2023-04-13T17:06:59.874Z,99928.94
2023-04-13T17:09:27.080Z,99938.91
2023-04-13T17:11:54.890Z,99943.19
2023-04-13T17:14:22.115Z,99936.47
2023-04-13T17:16:49.063Z,99940.94
2023-04-13T17:19:17.091Z,99942.75
2023-04-13T17:21:44.139Z,99949.88
2023-04-13T17:24:11.442Z,99948.63
2023-04-13T17:26:38.508Z,99948.44
2023-04-13T17:29:05.818Z,99951.06
2023-04-13T17:31:33.079Z,99952.91
2023-04-13T17:33:59.969Z,99956.56
2023-04-13T17:36:27.791Z,99957.16
2023-04-13T17:38:54.948Z,99956.53
2023-04-13T17:41:21.973Z,99961.59
2023-04-13T17:43:48.868Z,99968.31
2023-04-13T17:46:16.187Z,99962.16
2023-04-13T17:48:43.407Z,99976.78
2023-04-13T17:51:11.849Z,99970.81
2023-04-13T17:53:38.980Z,99978.50
2023-04-13T17:56:06.036Z,99979.75
2023-04-13T17:58:34.379Z,99986.44
2023-04-13T18:01:06.955Z,99983.16
2023-04-13T18:03:34.376Z,99984.38
2023-04-13T18:06:01.880Z,99992.47
2023-04-13T18:08:28.735Z,99992.66
2023-04-13T18:10:56.710Z,100000.00
2023-04-13T18:13:23.827Z,100012.38
2023-04-13T18:15:51.036Z,100002.38
2023-04-13T18:18:19.083Z,100006.63
2023-04-13T18:20:45.998Z,100018.94
2023-04-13T18:23:13.047Z,100020.72
2023-04-13T18:25:40.013Z,100024.75
2023-04-13T18:28:07.269Z,100031.16
2023-04-13T18:30:34.254Z,100029.28
2023-04-13T18:33:01.293Z,100044.66
2023-04-13T18:35:28.545Z,100040.38
2023-04-13T18:37:55.474Z,100044.66
2023-04-13T18:40:22.552Z,100045.22
2023-04-13T18:42:50.504Z,100054.78
2023-04-13T18:45:17.723Z,100060.06
2023-04-13T18:47:44.719Z,100056.63
2023-04-13T18:50:12.132Z,100062.88
2023-04-13T18:52:39.183Z,100063.63
2023-04-13T18:55:06.445Z,100062.19
2023-04-13T18:57:33.364Z,100074.69
2023-04-13T19:00:00.334Z,100081.91
2023-04-13T19:02:27.632Z,100077.75
2023-04-13T19:04:54.721Z,100085.94
2023-04-13T19:07:21.638Z,100088.31
2023-04-13T19:09:48.580Z,100088.22
2023-04-13T19:12:15.712Z,100091.78
2023-04-13T19:14:42.631Z,100089.41
2023-04-13T19:17:09.690Z,100091.50
2023-04-13T19:19:37.202Z,100088.59
2023-04-13T19:22:04.171Z,100090.31
2023-04-13T19:24:31.218Z,100090.03
2023-04-13T19:26:58.175Z,100091.22
2023-04-13T19:29:30.417Z,100091.59
2023-04-13T19:31:57.341Z,100089.66
2023-04-13T19:34:24.261Z,100098.94
2023-04-13T19:36:51.190Z,100095.84
2023-04-13T19:39:18.183Z,100091.13
2023-04-13T19:41:45.100Z,100096.72
2023-04-13T19:44:14.324Z,100101.06
2023-04-13T19:46:41.253Z,100099.94
2023-04-13T19:49:08.567Z,100104.94
2023-04-13T19:51:36.008Z,100104.81
2023-04-13T19:54:03.281Z,100117.53
2023-04-13T19:56:31.332Z,100115.59
2023-04-13T19:58:58.241Z,100113.94
2023-04-13T20:01:25.459Z,100118.38
2023-04-13T20:03:52.829Z,100119.56
2023-04-13T20:06:19.980Z,100124.00
2023-04-13T20:08:47.404Z,100124.53
2023-04-13T20:11:14.714Z,100126.88
2023-04-13T20:13:41.684Z,100123.13
2023-04-13T20:16:08.732Z,100120.19
2023-04-13T20:18:35.700Z,100119.69
2023-04-13T20:21:02.601Z,100120.53
2023-04-13T20:23:31.728Z,100124.34
2023-04-13T20:25:58.712Z,100120.06
2023-04-13T20:28:25.732Z,100118.41
2023-04-13T20:30:52.797Z,100120.44
2023-04-13T20:33:19.946Z,100123.22
2023-04-13T20:35:46.997Z,100117.50
2023-04-13T20:38:14.401Z,100119.63
2023-04-13T20:40:42.223Z,100115.34
2023-04-13T20:43:11.416Z,100127.72
2023-04-13T20:45:38.723Z,100126.41
2023-04-13T20:50:36.950Z,100132.03
2023-04-13T20:53:05.303Z,100135.50
2023-04-13T20:55:32.876Z,100133.38
2023-04-13T20:57:59.882Z,100136.38
2023-04-13T21:00:28.335Z,100141.31
2023-04-13T21:02:55.474Z,100138.03
2023-04-13T21:05:22.566Z,100134.94
2023-04-13T21:07:49.620Z,100139.19
2023-04-13T21:10:17.954Z,100133.13
2023-04-13T21:12:44.852Z,100134.94
2023-04-13T21:15:11.997Z,100128.53
2023-04-13T21:17:39.133Z,100136.44
2023-04-13T21:20:09.349Z,100129.72
2023-04-13T21:22:36.573Z,100135.59
2023-04-13T21:25:04.410Z,100130.53
2023-04-13T21:27:31.449Z,100139.06
2023-04-13T21:29:58.920Z,100131.16
2023-04-13T21:32:25.815Z,100126.25
2023-04-13T21:34:54.604Z,100129.72
2023-04-13T21:37:21.553Z,100129.72
2023-04-13T21:39:48.463Z,100128.06
2023-04-13T21:42:17.133Z,100125.75
2023-04-13T21:44:44.050Z,100130.19
2023-04-13T21:47:10.908Z,100132.34
2023-04-13T21:49:37.746Z,100130.38
2023-04-13T21:52:04.640Z,100126.63
2023-04-13T21:54:31.599Z,100125.13
2023-04-13T21:56:58.402Z,100121.72
2023-04-13T21:59:27.687Z,100124.50
2023-04-13T22:01:54.992Z,100129.44
2023-04-13T22:04:22.410Z,100130.25
2023-04-13T22:06:49.401Z,100123.72
2023-04-13T22:09:16.503Z,100130.13
2023-04-13T22:11:43.364Z,100131.59
2023-04-13T22:14:10.273Z,100128.00
2023-04-13T22:16:37.197Z,100130.63
2023-04-13T22:19:04.152Z,100128.16
2023-04-13T22:21:31.738Z,100133.56
2023-04-13T22:23:58.632Z,100128.50
2023-04-13T22:26:26.045Z,100127.00
2023-04-13T22:28:52.948Z,100131.91
2023-04-13T22:31:20.000Z,100126.34
2023-04-13T22:33:46.871Z,100123.72
2023-04-13T22:36:17.994Z,100130.78
2023-04-13T22:38:44.793Z,100123.56
2023-04-13T22:41:11.811Z,100122.56
2023-04-13T22:43:38.679Z,100124.03
2023-04-13T22:46:05.670Z,100117.13
2023-04-13T22:48:32.593Z,100121.41
2023-04-13T22:51:00.917Z,100121.59
2023-04-13T22:53:27.931Z,100118.97
2023-04-13T22:55:54.769Z,100117.13
2023-04-13T22:58:21.882Z,100118.97
2023-04-13T23:00:48.895Z,100112.38
2023-04-13T23:03:16.031Z,100112.56
2023-04-13T23:05:43.144Z,100104.84
2023-04-13T23:08:10.020Z,100118.78
2023-04-13T23:10:36.927Z,100116.16
2023-04-13T23:13:04.943Z,100108.44
2023-04-13T23:15:32.004Z,100109.25
2023-04-13T23:17:58.827Z,100111.38
2023-04-13T23:20:27.503Z,100110.91
2023-04-13T23:22:56.841Z,100110.25
2023-04-13T23:25:24.043Z,100112.72
2023-04-13T23:27:50.879Z,100113.53
2023-04-13T23:30:17.693Z,100119.94
2023-04-13T23:32:44.570Z,100111.91
2023-04-13T23:35:11.379Z,100108.59
2023-04-13T23:37:38.163Z,100109.78
2023-04-13T23:40:05.694Z,100110.75
2023-04-13T23:42:32.512Z,100113.72
2023-04-13T23:44:59.327Z,100104.34
2023-04-13T23:47:26.256Z,100116.16
2023-04-13T23:49:54.446Z,100115.38
2023-04-13T23:52:21.376Z,100118.78
2023-04-13T23:54:48.123Z,100126.53
2023-04-13T23:57:14.976Z,100127.84
2023-04-13T23:59:41.761Z,100126.03
